GLG8380 SEGU-SKBO
Flight info
| Callsign | GLG8380 |
|---|---|
| Flight time | 1h 25m |
| Altitude | 36000 |
| Route | USOGI1 PAMIS UP533 QIT/N0457F380 UP533 BOKAN/N0456F370 DCT GIR GIR5W |
| Aircraft | A320/M-SDE3FGHIRWY/LB1 |
Departure
| Time | 2026-04-25 10:22 |
|---|---|
| Airport | José Joaquín de Olmedo International Airport (SEGU) |
Arrival
| Time | 2026-04-25 11:47 |
|---|---|
| Airport | El Dorado International Airport (SKBO) |
| Time | Latitude | Longitude | Altitude | Speed | Heading |
|---|---|---|---|---|---|
| 2026-04-25 09:59 | -2.15024 | -79.88415 | 22 ft | 0 kts | 299° |
| 2026-04-25 10:16 | -2.15033 | -79.88400 | 24 ft | 4 kts | 304° |
| 2026-04-25 10:17 | -2.15050 | -79.88379 | 25 ft | 4 kts | 320° |
| 2026-04-25 10:17 | -2.15068 | -79.88368 | 25 ft | 4 kts | 353° |
| 2026-04-25 10:17 | -2.15084 | -79.88370 | 26 ft | 1 kts | 28° |
| 2026-04-25 10:17 | -2.15086 | -79.88371 | 26 ft | 0 kts | 28° |
| 2026-04-25 10:19 | -2.15047 | -79.88350 | 24 ft | 14 kts | 29° |
| 2026-04-25 10:19 | -2.14969 | -79.88304 | 22 ft | 12 kts | 30° |
| 2026-04-25 10:20 | -2.14897 | -79.88263 | 23 ft | 11 kts | 30° |
| 2026-04-25 10:20 | -2.14825 | -79.88222 | 23 ft | 15 kts | 30° |
| 2026-04-25 10:20 | -2.14800 | -79.88135 | 21 ft | 16 kts | 119° |
| 2026-04-25 10:20 | -2.14819 | -79.88025 | 23 ft | 17 kts | 42° |
| 2026-04-25 10:21 | -2.14720 | -79.87968 | 22 ft | 16 kts | 29° |
| 2026-04-25 10:21 | -2.14653 | -79.87895 | 23 ft | 14 kts | 68° |
| 2026-04-25 10:21 | -2.14633 | -79.87806 | 21 ft | 13 kts | 88° |
| 2026-04-25 10:21 | -2.14702 | -79.87764 | 22 ft | 15 kts | 211° |
| 2026-04-25 10:22 | -2.14876 | -79.87868 | 22 ft | 60 kts | 210° |
| 2026-04-25 10:22 | -2.15436 | -79.88190 | 20 ft | 123 kts | 210° |
| 2026-04-25 10:22 | -2.16320 | -79.88699 | 155 ft | 159 kts | 210° |
| 2026-04-25 10:22 | -2.17291 | -79.89266 | 790 ft | 164 kts | 210° |
| 2026-04-25 10:23 | -2.18298 | -79.89858 | 1367 ft | 173 kts | 211° |
| 2026-04-25 10:23 | -2.19410 | -79.90501 | 1712 ft | 195 kts | 210° |
| 2026-04-25 10:23 | -2.20729 | -79.91232 | 2039 ft | 221 kts | 209° |
| 2026-04-25 10:23 | -2.22100 | -79.92126 | 2471 ft | 246 kts | 227° |
| 2026-04-25 10:24 | -2.22854 | -79.93704 | 2999 ft | 264 kts | 265° |
| 2026-04-25 10:24 | -2.22517 | -79.95485 | 3772 ft | 270 kts | 300° |
| 2026-04-25 10:24 | -2.21188 | -79.96801 | 4643 ft | 274 kts | 334° |
| 2026-04-25 10:24 | -2.19332 | -79.97156 | 5478 ft | 276 kts | 8° |
| 2026-04-25 10:25 | -2.17529 | -79.96489 | 6309 ft | 280 kts | 31° |
| 2026-04-25 10:25 | -2.15828 | -79.95515 | 7103 ft | 284 kts | 30° |
| 2026-04-25 10:25 | -2.14099 | -79.94522 | 7896 ft | 288 kts | 30° |
| 2026-04-25 10:25 | -2.12345 | -79.93512 | 8708 ft | 293 kts | 30° |
| 2026-04-25 10:26 | -2.10566 | -79.92496 | 9499 ft | 297 kts | 27° |
| 2026-04-25 10:26 | -2.08670 | -79.91693 | 10218 ft | 305 kts | 19° |
| 2026-04-25 10:26 | -2.06566 | -79.91043 | 10501 ft | 328 kts | 15° |
| 2026-04-25 10:26 | -2.04278 | -79.90453 | 10781 ft | 348 kts | 13° |
| 2026-04-25 10:27 | -2.01900 | -79.89877 | 11354 ft | 355 kts | 13° |
| 2026-04-25 10:27 | -1.99482 | -79.89275 | 12019 ft | 360 kts | 14° |
| 2026-04-25 10:27 | -1.97081 | -79.88515 | 12667 ft | 364 kts | 24° |
| 2026-04-25 10:27 | -1.94874 | -79.87238 | 13319 ft | 369 kts | 37° |
| 2026-04-25 10:28 | -1.93005 | -79.85518 | 13947 ft | 372 kts | 49° |
| 2026-04-25 10:28 | -1.91321 | -79.83539 | 14537 ft | 375 kts | 50° |
| 2026-04-25 10:28 | -1.89614 | -79.81547 | 15142 ft | 378 kts | 49° |
| 2026-04-25 10:28 | -1.87887 | -79.79554 | 15749 ft | 380 kts | 49° |
| 2026-04-25 10:29 | -1.86145 | -79.77555 | 16324 ft | 383 kts | 49° |
| 2026-04-25 10:29 | -1.84390 | -79.75540 | 16915 ft | 386 kts | 49° |
| 2026-04-25 10:29 | -1.82622 | -79.73508 | 17493 ft | 388 kts | 49° |
| 2026-04-25 10:29 | -1.80849 | -79.71466 | 18085 ft | 390 kts | 49° |
| 2026-04-25 10:30 | -1.79066 | -79.69409 | 18627 ft | 392 kts | 49° |
| 2026-04-25 10:30 | -1.77884 | -79.68043 | 18955 ft | 393 kts | 49° |
| 2026-04-25 10:30 | -1.75478 | -79.65264 | 19611 ft | 396 kts | 49° |
| 2026-04-25 10:30 | -1.73666 | -79.63176 | 20105 ft | 398 kts | 49° |
| 2026-04-25 10:31 | -1.71851 | -79.61082 | 20590 ft | 399 kts | 49° |
| 2026-04-25 10:31 | -1.70026 | -79.58980 | 21077 ft | 401 kts | 49° |
| 2026-04-25 10:31 | -1.68189 | -79.56868 | 21589 ft | 403 kts | 49° |
| 2026-04-25 10:31 | -1.66346 | -79.54748 | 22064 ft | 405 kts | 49° |
| 2026-04-25 10:32 | -1.64492 | -79.52615 | 22544 ft | 407 kts | 49° |
| 2026-04-25 10:32 | -1.62635 | -79.50475 | 23008 ft | 409 kts | 49° |
| 2026-04-25 10:32 | -1.60764 | -79.48331 | 23464 ft | 411 kts | 47° |
| 2026-04-25 10:32 | -1.58656 | -79.46398 | 23846 ft | 413 kts | 38° |
| 2026-04-25 10:33 | -1.56231 | -79.44833 | 24209 ft | 415 kts | 31° |
| 2026-04-25 10:33 | -1.53757 | -79.43402 | 24569 ft | 417 kts | 31° |
| 2026-04-25 10:33 | -1.51242 | -79.41941 | 24969 ft | 419 kts | 31° |
| 2026-04-25 10:33 | -1.48708 | -79.40467 | 25344 ft | 421 kts | 32° |
| 2026-04-25 10:34 | -1.46171 | -79.38994 | 25692 ft | 423 kts | 32° |
| 2026-04-25 10:34 | -1.43615 | -79.37507 | 26027 ft | 425 kts | 32° |
| 2026-04-25 10:34 | -1.41229 | -79.36119 | 26293 ft | 426 kts | 31° |
| 2026-04-25 10:34 | -1.38651 | -79.34623 | 26536 ft | 430 kts | 32° |
| 2026-04-25 10:35 | -1.36055 | -79.33116 | 26894 ft | 431 kts | 32° |
| 2026-04-25 10:35 | -1.33456 | -79.31605 | 27243 ft | 433 kts | 32° |
| 2026-04-25 10:35 | -1.30845 | -79.30088 | 27579 ft | 435 kts | 32° |
| 2026-04-25 10:35 | -1.28221 | -79.28564 | 27910 ft | 437 kts | 32° |
| 2026-04-25 10:36 | -1.25587 | -79.27035 | 28295 ft | 439 kts | 32° |
| 2026-04-25 10:36 | -1.22936 | -79.25499 | 28607 ft | 441 kts | 32° |
| 2026-04-25 10:36 | -1.20271 | -79.23955 | 28915 ft | 443 kts | 32° |
| 2026-04-25 10:36 | -1.17636 | -79.22429 | 29214 ft | 445 kts | 32° |
| 2026-04-25 10:37 | -1.14955 | -79.20874 | 29495 ft | 447 kts | 32° |
| 2026-04-25 10:37 | -1.12263 | -79.19310 | 29771 ft | 448 kts | 32° |
| 2026-04-25 10:37 | -1.09565 | -79.17741 | 30019 ft | 450 kts | 33° |
| 2026-04-25 10:37 | -1.06855 | -79.16162 | 30266 ft | 452 kts | 32° |
| 2026-04-25 10:38 | -1.04133 | -79.14578 | 30497 ft | 454 kts | 32° |
| 2026-04-25 10:38 | -1.01398 | -79.12991 | 30796 ft | 455 kts | 32° |
| 2026-04-25 10:38 | -0.98648 | -79.11397 | 31031 ft | 457 kts | 33° |
| 2026-04-25 10:38 | -0.95898 | -79.09802 | 31370 ft | 455 kts | 33° |
| 2026-04-25 10:39 | -0.93163 | -79.08215 | 31717 ft | 454 kts | 33° |
| 2026-04-25 10:39 | -0.90467 | -79.06650 | 32059 ft | 453 kts | 33° |
| 2026-04-25 10:39 | -0.87746 | -79.05071 | 32388 ft | 452 kts | 33° |
| 2026-04-25 10:39 | -0.85031 | -79.03496 | 32752 ft | 451 kts | 33° |
| 2026-04-25 10:40 | -0.82322 | -79.01924 | 33091 ft | 450 kts | 33° |
| 2026-04-25 10:40 | -0.79617 | -79.00346 | 33451 ft | 449 kts | 34° |
| 2026-04-25 10:40 | -0.76960 | -78.98713 | 33795 ft | 447 kts | 36° |
| 2026-04-25 10:40 | -0.75231 | -78.97602 | 34090 ft | 446 kts | 37° |
| 2026-04-25 10:41 | -0.71774 | -78.95309 | 34466 ft | 445 kts | 37° |
| 2026-04-25 10:41 | -0.69206 | -78.93585 | 34731 ft | 444 kts | 37° |
| 2026-04-25 10:41 | -0.66633 | -78.91870 | 35002 ft | 444 kts | 37° |
| 2026-04-25 10:41 | -0.64045 | -78.90169 | 35231 ft | 445 kts | 36° |
| 2026-04-25 10:42 | -0.62331 | -78.89054 | 35396 ft | 445 kts | 36° |
| 2026-04-25 10:42 | -0.59727 | -78.87372 | 35609 ft | 445 kts | 35° |
| 2026-04-25 10:42 | -0.57130 | -78.85697 | 35871 ft | 444 kts | 35° |
| 2026-04-25 10:42 | -0.54527 | -78.84017 | 36129 ft | 444 kts | 35° |
| 2026-04-25 10:43 | -0.51931 | -78.82337 | 36283 ft | 445 kts | 35° |
| 2026-04-25 10:43 | -0.46750 | -78.78972 | 36308 ft | 443 kts | 35° |
| 2026-04-25 10:44 | -0.41583 | -78.75611 | 36290 ft | 443 kts | 35° |
| 2026-04-25 10:44 | -0.36370 | -78.72228 | 36288 ft | 444 kts | 35° |
| 2026-04-25 10:45 | -0.31190 | -78.68868 | 36310 ft | 444 kts | 35° |
| 2026-04-25 10:45 | -0.26009 | -78.65511 | 36326 ft | 444 kts | 35° |
| 2026-04-25 10:46 | -0.20846 | -78.62167 | 36309 ft | 447 kts | 35° |
| 2026-04-25 10:46 | -0.15608 | -78.58772 | 36325 ft | 451 kts | 35° |
| 2026-04-25 10:47 | -0.10340 | -78.55345 | 36333 ft | 452 kts | 35° |
| 2026-04-25 10:47 | -0.04983 | -78.51870 | 36335 ft | 454 kts | 35° |
| 2026-04-25 10:48 | 0.00230 | -78.48289 | 36284 ft | 454 kts | 38° |
| 2026-04-25 10:48 | 0.05226 | -78.44485 | 36292 ft | 454 kts | 39° |
| 2026-04-25 10:49 | 0.10245 | -78.40629 | 36301 ft | 455 kts | 39° |
| 2026-04-25 10:49 | 0.15345 | -78.36803 | 36318 ft | 455 kts | 38° |
| 2026-04-25 10:50 | 0.20440 | -78.33031 | 36322 ft | 456 kts | 38° |
| 2026-04-25 10:50 | 0.25506 | -78.29278 | 36323 ft | 455 kts | 38° |
| 2026-04-25 10:51 | 0.30629 | -78.25471 | 36300 ft | 455 kts | 38° |
| 2026-04-25 10:51 | 0.35678 | -78.21707 | 36322 ft | 455 kts | 38° |
| 2026-04-25 10:52 | 0.40798 | -78.17887 | 36319 ft | 456 kts | 38° |
| 2026-04-25 10:52 | 0.45889 | -78.14101 | 36285 ft | 456 kts | 38° |
| 2026-04-25 10:53 | 0.50985 | -78.10311 | 36306 ft | 457 kts | 38° |
| 2026-04-25 10:53 | 0.56094 | -78.06510 | 36307 ft | 457 kts | 38° |
| 2026-04-25 10:54 | 0.61187 | -78.02707 | 36277 ft | 457 kts | 38° |
| 2026-04-25 10:54 | 0.66293 | -77.98903 | 36279 ft | 457 kts | 38° |
| 2026-04-25 10:55 | 0.71399 | -77.95105 | 36299 ft | 457 kts | 38° |
| 2026-04-25 10:55 | 0.76503 | -77.91307 | 36272 ft | 457 kts | 38° |
| 2026-04-25 10:56 | 0.81625 | -77.87459 | 36269 ft | 458 kts | 40° |
| 2026-04-25 10:56 | 0.86459 | -77.83333 | 36270 ft | 457 kts | 43° |
| 2026-04-25 10:57 | 0.91134 | -77.79008 | 36261 ft | 457 kts | 44° |
| 2026-04-25 10:57 | 0.95804 | -77.74748 | 36262 ft | 457 kts | 43° |
| 2026-04-25 10:58 | 1.00561 | -77.70524 | 36262 ft | 457 kts | 43° |
| 2026-04-25 10:58 | 1.05328 | -77.66314 | 36228 ft | 458 kts | 43° |
| 2026-04-25 10:59 | 1.10094 | -77.62094 | 36228 ft | 457 kts | 43° |
| 2026-04-25 10:59 | 1.14845 | -77.57867 | 36231 ft | 458 kts | 43° |
| 2026-04-25 11:00 | 1.19606 | -77.53629 | 36185 ft | 458 kts | 43° |
| 2026-04-25 11:00 | 1.24370 | -77.49393 | 36201 ft | 458 kts | 43° |
| 2026-04-25 11:01 | 1.29137 | -77.45161 | 36204 ft | 458 kts | 43° |
| 2026-04-25 11:01 | 1.33892 | -77.40932 | 36205 ft | 458 kts | 43° |
| 2026-04-25 11:02 | 1.38653 | -77.36693 | 36208 ft | 458 kts | 43° |
| 2026-04-25 11:02 | 1.43409 | -77.32463 | 36147 ft | 458 kts | 43° |
| 2026-04-25 11:03 | 1.48176 | -77.28231 | 36143 ft | 457 kts | 43° |
| 2026-04-25 11:03 | 1.52934 | -77.24005 | 36097 ft | 458 kts | 43° |
| 2026-04-25 11:04 | 1.57700 | -77.19761 | 36118 ft | 459 kts | 43° |
| 2026-04-25 11:04 | 1.62470 | -77.15519 | 36120 ft | 459 kts | 43° |
| 2026-04-25 11:05 | 1.67245 | -77.11276 | 36082 ft | 458 kts | 43° |
| 2026-04-25 11:05 | 1.72010 | -77.07031 | 36093 ft | 458 kts | 43° |
| 2026-04-25 11:06 | 1.76782 | -77.02786 | 36094 ft | 458 kts | 43° |
| 2026-04-25 11:06 | 1.81556 | -76.98540 | 36070 ft | 458 kts | 43° |
| 2026-04-25 11:07 | 1.86321 | -76.94303 | 36068 ft | 458 kts | 43° |
| 2026-04-25 11:07 | 1.91095 | -76.90056 | 36075 ft | 459 kts | 43° |
| 2026-04-25 11:08 | 1.95870 | -76.85802 | 36061 ft | 460 kts | 43° |
| 2026-04-25 11:08 | 2.00652 | -76.81553 | 36071 ft | 460 kts | 43° |
| 2026-04-25 11:09 | 2.05430 | -76.77302 | 36105 ft | 459 kts | 43° |
| 2026-04-25 11:09 | 2.10197 | -76.73053 | 36095 ft | 459 kts | 43° |
| 2026-04-25 11:10 | 2.14169 | -76.69520 | 36115 ft | 459 kts | 43° |
| 2026-04-25 11:10 | 2.18977 | -76.65248 | 36142 ft | 458 kts | 43° |
| 2026-04-25 11:11 | 2.23743 | -76.61006 | 36175 ft | 459 kts | 43° |
| 2026-04-25 11:11 | 2.28486 | -76.56776 | 36184 ft | 460 kts | 43° |
| 2026-04-25 11:12 | 2.33270 | -76.52508 | 36197 ft | 461 kts | 43° |
| 2026-04-25 11:12 | 2.38061 | -76.48244 | 36202 ft | 461 kts | 43° |
| 2026-04-25 11:13 | 2.42859 | -76.43982 | 36198 ft | 461 kts | 43° |
| 2026-04-25 11:13 | 2.47647 | -76.39722 | 36183 ft | 460 kts | 43° |
| 2026-04-25 11:14 | 2.52433 | -76.35456 | 36170 ft | 460 kts | 43° |
| 2026-04-25 11:14 | 2.57210 | -76.31194 | 36148 ft | 460 kts | 43° |
| 2026-04-25 11:15 | 2.61971 | -76.26953 | 36123 ft | 461 kts | 43° |
| 2026-04-25 11:15 | 2.66806 | -76.22653 | 36114 ft | 462 kts | 43° |
| 2026-04-25 11:16 | 2.74012 | -76.16241 | 36127 ft | 463 kts | 43° |
| 2026-04-25 11:16 | 2.78825 | -76.11946 | 36135 ft | 463 kts | 44° |
| 2026-04-25 11:17 | 2.83632 | -76.07657 | 36143 ft | 461 kts | 44° |
| 2026-04-25 11:17 | 2.88420 | -76.03378 | 36160 ft | 461 kts | 44° |
| 2026-04-25 11:18 | 2.93212 | -75.99109 | 36163 ft | 461 kts | 44° |
| 2026-04-25 11:18 | 2.98006 | -75.94845 | 36169 ft | 461 kts | 44° |
| 2026-04-25 11:19 | 3.02792 | -75.90581 | 36175 ft | 461 kts | 44° |
| 2026-04-25 11:19 | 3.07575 | -75.86307 | 36174 ft | 461 kts | 44° |
| 2026-04-25 11:20 | 3.12361 | -75.82039 | 36176 ft | 461 kts | 44° |
| 2026-04-25 11:20 | 3.17156 | -75.77762 | 36146 ft | 461 kts | 44° |
| 2026-04-25 11:21 | 3.21916 | -75.73510 | 36148 ft | 461 kts | 44° |
| 2026-04-25 11:21 | 3.26714 | -75.69229 | 36159 ft | 462 kts | 44° |
| 2026-04-25 11:22 | 3.30702 | -75.65677 | 36164 ft | 462 kts | 44° |
| 2026-04-25 11:22 | 3.36320 | -75.60700 | 36134 ft | 461 kts | 44° |
| 2026-04-25 11:23 | 3.41117 | -75.56420 | 36149 ft | 461 kts | 44° |
| 2026-04-25 11:23 | 3.45904 | -75.52135 | 36149 ft | 461 kts | 44° |
| 2026-04-25 11:24 | 3.50690 | -75.47851 | 36126 ft | 462 kts | 44° |
| 2026-04-25 11:24 | 3.55488 | -75.43572 | 36126 ft | 462 kts | 44° |
| 2026-04-25 11:25 | 3.60282 | -75.39289 | 36111 ft | 462 kts | 44° |
| 2026-04-25 11:25 | 3.65089 | -75.34981 | 36099 ft | 463 kts | 44° |
| 2026-04-25 11:26 | 3.69896 | -75.30680 | 36106 ft | 464 kts | 44° |
| 2026-04-25 11:26 | 3.74722 | -75.26373 | 36102 ft | 465 kts | 44° |
| 2026-04-25 11:27 | 3.79557 | -75.22053 | 36105 ft | 466 kts | 44° |
| 2026-04-25 11:27 | 3.83611 | -75.18431 | 36112 ft | 466 kts | 44° |
| 2026-04-25 11:28 | 3.89271 | -75.13369 | 36115 ft | 467 kts | 44° |
| 2026-04-25 11:28 | 3.91689 | -75.11203 | 35898 ft | 467 kts | 44° |
| 2026-04-25 11:28 | 3.94107 | -75.09038 | 35660 ft | 467 kts | 44° |
| 2026-04-25 11:29 | 3.96533 | -75.06869 | 35427 ft | 467 kts | 44° |
| 2026-04-25 11:29 | 3.98957 | -75.04703 | 35201 ft | 468 kts | 44° |
| 2026-04-25 11:29 | 4.01432 | -75.02491 | 34568 ft | 471 kts | 44° |
| 2026-04-25 11:29 | 4.03882 | -75.00302 | 33535 ft | 470 kts | 44° |
| 2026-04-25 11:30 | 4.06336 | -74.98109 | 32475 ft | 463 kts | 44° |
| 2026-04-25 11:30 | 4.08754 | -74.95943 | 31442 ft | 468 kts | 44° |
| 2026-04-25 11:30 | 4.11193 | -74.93752 | 30356 ft | 474 kts | 44° |
| 2026-04-25 11:30 | 4.13671 | -74.91526 | 29050 ft | 482 kts | 44° |
| 2026-04-25 11:31 | 4.16262 | -74.89359 | 27798 ft | 488 kts | 37° |
| 2026-04-25 11:31 | 4.19203 | -74.87622 | 26831 ft | 489 kts | 26° |
| 2026-04-25 11:31 | 4.22358 | -74.86426 | 26237 ft | 484 kts | 17° |
| 2026-04-25 11:31 | 4.25670 | -74.85735 | 26036 ft | 487 kts | 9° |
| 2026-04-25 11:32 | 4.29029 | -74.85274 | 25912 ft | 485 kts | 8° |
| 2026-04-25 11:32 | 4.32284 | -74.84837 | 25901 ft | 457 kts | 8° |
| 2026-04-25 11:32 | 4.35390 | -74.84430 | 25775 ft | 432 kts | 8° |
| 2026-04-25 11:32 | 4.38300 | -74.84055 | 25241 ft | 414 kts | 8° |
| 2026-04-25 11:33 | 4.41127 | -74.83691 | 24508 ft | 405 kts | 8° |
| 2026-04-25 11:33 | 4.43860 | -74.83337 | 23757 ft | 398 kts | 7° |
| 2026-04-25 11:33 | 4.46563 | -74.82981 | 23161 ft | 385 kts | 7° |
| 2026-04-25 11:33 | 4.49185 | -74.82634 | 22485 ft | 375 kts | 7° |
| 2026-04-25 11:34 | 4.51752 | -74.82292 | 21833 ft | 367 kts | 7° |
| 2026-04-25 11:34 | 4.54266 | -74.81958 | 21230 ft | 365 kts | 7° |
| 2026-04-25 11:34 | 4.56797 | -74.81622 | 20628 ft | 369 kts | 7° |
| 2026-04-25 11:34 | 4.59362 | -74.81279 | 20012 ft | 373 kts | 7° |
| 2026-04-25 11:35 | 4.61942 | -74.80935 | 19493 ft | 374 kts | 7° |
| 2026-04-25 11:35 | 4.64505 | -74.80597 | 19145 ft | 369 kts | 7° |
| 2026-04-25 11:35 | 4.67041 | -74.80263 | 18519 ft | 364 kts | 7° |
| 2026-04-25 11:35 | 4.69542 | -74.79934 | 17653 ft | 361 kts | 7° |
| 2026-04-25 11:36 | 4.71982 | -74.79611 | 17063 ft | 353 kts | 7° |
| 2026-04-25 11:36 | 4.74358 | -74.79271 | 16810 ft | 343 kts | 11° |
| 2026-04-25 11:36 | 4.76610 | -74.78399 | 16554 ft | 351 kts | 31° |
| 2026-04-25 11:36 | 4.78441 | -74.76787 | 16302 ft | 353 kts | 52° |
| 2026-04-25 11:37 | 4.79600 | -74.74616 | 16067 ft | 355 kts | 69° |
| 2026-04-25 11:37 | 4.80157 | -74.73033 | 15906 ft | 356 kts | 70° |
| 2026-04-25 11:37 | 4.81242 | -74.69931 | 15592 ft | 355 kts | 70° |
| 2026-04-25 11:37 | 4.81798 | -74.68352 | 15432 ft | 354 kts | 70° |
| 2026-04-25 11:38 | 4.82621 | -74.66023 | 15190 ft | 354 kts | 70° |
| 2026-04-25 11:38 | 4.83443 | -74.63706 | 14975 ft | 352 kts | 70° |
| 2026-04-25 11:38 | 4.84262 | -74.61395 | 14741 ft | 351 kts | 70° |
| 2026-04-25 11:38 | 4.85078 | -74.59092 | 14511 ft | 350 kts | 70° |
| 2026-04-25 11:39 | 4.85890 | -74.56802 | 14278 ft | 348 kts | 70° |
| 2026-04-25 11:39 | 4.86682 | -74.54563 | 14103 ft | 338 kts | 70° |
| 2026-04-25 11:39 | 4.87455 | -74.52384 | 13987 ft | 315 kts | 70° |
| 2026-04-25 11:39 | 4.88170 | -74.50367 | 13754 ft | 300 kts | 70° |
| 2026-04-25 11:40 | 4.88853 | -74.48433 | 13351 ft | 295 kts | 70° |
| 2026-04-25 11:40 | 4.89523 | -74.46535 | 13156 ft | 280 kts | 70° |
| 2026-04-25 11:40 | 4.90155 | -74.44742 | 13037 ft | 267 kts | 70° |
| 2026-04-25 11:40 | 4.90514 | -74.42930 | 12924 ft | 264 kts | 88° |
| 2026-04-25 11:41 | 4.90327 | -74.41113 | 12846 ft | 260 kts | 105° |
| 2026-04-25 11:41 | 4.89628 | -74.39446 | 12875 ft | 261 kts | 123° |
| 2026-04-25 11:41 | 4.88556 | -74.37972 | 12890 ft | 261 kts | 128° |
| 2026-04-25 11:41 | 4.87481 | -74.36552 | 12887 ft | 249 kts | 128° |
| 2026-04-25 11:42 | 4.86446 | -74.35183 | 12933 ft | 244 kts | 127° |
| 2026-04-25 11:42 | 4.85427 | -74.33835 | 12741 ft | 241 kts | 127° |
| 2026-04-25 11:42 | 4.84419 | -74.32502 | 12462 ft | 239 kts | 127° |
| 2026-04-25 11:42 | 4.83430 | -74.31194 | 12182 ft | 225 kts | 127° |
| 2026-04-25 11:43 | 4.82509 | -74.29976 | 11905 ft | 213 kts | 127° |
| 2026-04-25 11:43 | 4.81635 | -74.28821 | 11647 ft | 203 kts | 127° |
| 2026-04-25 11:43 | 4.80811 | -74.27731 | 11421 ft | 193 kts | 126° |
| 2026-04-25 11:43 | 4.80008 | -74.26669 | 11184 ft | 184 kts | 127° |
| 2026-04-25 11:44 | 4.79249 | -74.25665 | 10957 ft | 178 kts | 126° |
| 2026-04-25 11:44 | 4.78505 | -74.24682 | 10768 ft | 171 kts | 126° |
| 2026-04-25 11:44 | 4.77798 | -74.23747 | 10562 ft | 167 kts | 126° |
| 2026-04-25 11:44 | 4.77103 | -74.22827 | 10366 ft | 165 kts | 126° |
| 2026-04-25 11:45 | 4.76397 | -74.21894 | 10163 ft | 163 kts | 127° |
| 2026-04-25 11:45 | 4.75719 | -74.20998 | 9949 ft | 161 kts | 127° |
| 2026-04-25 11:45 | 4.75038 | -74.20097 | 9729 ft | 160 kts | 127° |
| 2026-04-25 11:45 | 4.74367 | -74.19210 | 9523 ft | 160 kts | 127° |
| 2026-04-25 11:46 | 4.73687 | -74.18312 | 9273 ft | 159 kts | 127° |
| 2026-04-25 11:46 | 4.73016 | -74.17425 | 9031 ft | 160 kts | 126° |
| 2026-04-25 11:46 | 4.72344 | -74.16538 | 8809 ft | 159 kts | 127° |
| 2026-04-25 11:46 | 4.71638 | -74.15592 | 8528 ft | 158 kts | 126° |
| 2026-04-25 11:47 | 4.71002 | -74.14759 | 8383 ft | 156 kts | 127° |
| 2026-04-25 11:47 | 4.70426 | -74.13983 | 8370 ft | 119 kts | 128° |
| 2026-04-25 11:47 | 4.70015 | -74.13461 | 8371 ft | 70 kts | 128° |
| 2026-04-25 11:47 | 4.69833 | -74.13322 | 8371 ft | 25 kts | 168° |
| 2026-04-25 11:48 | 4.69728 | -74.13308 | 8372 ft | 0 kts | 172° |
| 2026-04-25 11:51 | 4.69700 | -74.13304 | 8372 ft | 7 kts | 174° |
| 2026-04-25 11:51 | 4.69688 | -74.13348 | 8373 ft | 11 kts | 294° |
| 2026-04-25 11:51 | 4.69731 | -74.13413 | 8373 ft | 12 kts | 308° |
| 2026-04-25 11:51 | 4.69783 | -74.13480 | 8373 ft | 13 kts | 307° |
| 2026-04-25 11:52 | 4.69839 | -74.13552 | 8373 ft | 14 kts | 308° |
| 2026-04-25 11:52 | 4.69899 | -74.13632 | 8373 ft | 15 kts | 306° |
| 2026-04-25 11:52 | 4.69965 | -74.13721 | 8373 ft | 16 kts | 307° |
| 2026-04-25 11:52 | 4.70036 | -74.13816 | 8373 ft | 18 kts | 307° |
| 2026-04-25 11:53 | 4.70111 | -74.13916 | 8372 ft | 12 kts | 308° |
| 2026-04-25 11:53 | 4.70138 | -74.13968 | 8372 ft | 11 kts | 264° |
| 2026-04-25 11:53 | 4.70081 | -74.14021 | 8373 ft | 8 kts | 227° |
| 2026-04-25 11:53 | 4.70034 | -74.14039 | 8373 ft | 7 kts | 164° |
| 2026-04-25 11:54 | 4.70010 | -74.14031 | 8373 ft | 5 kts | 181° |
| 2026-04-25 11:54 | 4.69970 | -74.14053 | 8373 ft | 7 kts | 221° |
| 2026-04-25 11:54 | 4.69944 | -74.14074 | 8369 ft | 0 kts | 219° |
| 2026-04-25 11:55 | 4.69942 | -74.14076 | 8370 ft | 0 kts | 219° |